sensor_id;sensor_type;location;lat;lon;timestamp;pressure;altitude;pressure_sealevel;temperature;humidity
69027;BME280;56080;47.594;19.116;2023-05-21T00:01:22;100371;;;17.99;72.92
69027;BME280;56080;47.594;19.116;2023-05-21T00:11:23;100376;;;17.90;74.82
69027;BME280;56080;47.594;19.116;2023-05-21T00:21:24;100379;;;17.68;75.67
69027;BME280;56080;47.594;19.116;2023-05-21T00:31:25;100385;;;17.56;76.70
69027;BME280;56080;47.594;19.116;2023-05-21T00:41:29;100389;;;17.51;75.99
69027;BME280;56080;47.594;19.116;2023-05-21T00:51:29;100377;;;17.53;74.69
69027;BME280;56080;47.594;19.116;2023-05-21T01:01:32;100374;;;17.67;72.66
69027;BME280;56080;47.594;19.116;2023-05-21T01:11:48;100368;;;17.68;73.84
69027;BME280;56080;47.594;19.116;2023-05-21T01:21:35;100372;;;17.37;75.43
69027;BME280;56080;47.594;19.116;2023-05-21T01:41:36;100359;;;17.02;75.60
69027;BME280;56080;47.594;19.116;2023-05-21T01:51:36;100356;;;17.03;75.72
69027;BME280;56080;47.594;19.116;2023-05-21T02:01:38;100352;;;16.95;77.05
69027;BME280;56080;47.594;19.116;2023-05-21T02:11:39;100358;;;16.75;78.20
69027;BME280;56080;47.594;19.116;2023-05-21T02:21:41;100354;;;16.34;81.14
69027;BME280;56080;47.594;19.116;2023-05-21T02:31:42;100346;;;16.04;82.63
69027;BME280;56080;47.594;19.116;2023-05-21T02:41:45;100349;;;16.15;82.69
69027;BME280;56080;47.594;19.116;2023-05-21T02:51:45;100350;;;15.92;83.10
69027;BME280;56080;47.594;19.116;2023-05-21T03:01:46;100342;;;15.92;82.94
69027;BME280;56080;47.594;19.116;2023-05-21T03:11:49;100340;;;15.79;84.58
69027;BME280;56080;47.594;19.116;2023-05-21T03:21:49;100342;;;15.61;84.98
69027;BME280;56080;47.594;19.116;2023-05-21T03:31:51;100347;;;15.76;84.97
69027;BME280;56080;47.594;19.116;2023-05-21T03:41:51;100348;;;15.86;83.29
69027;BME280;56080;47.594;19.116;2023-05-21T03:51:53;100349;;;15.89;82.92
69027;BME280;56080;47.594;19.116;2023-05-21T04:01:54;100353;;;16.11;83.28
69027;BME280;56080;47.594;19.116;2023-05-21T04:11:55;100359;;;16.22;82.43
69027;BME280;56080;47.594;19.116;2023-05-21T04:21:57;100363;;;16.59;81.04
69027;BME280;56080;47.594;19.116;2023-05-21T04:31:58;100370;;;16.81;79.19
69027;BME280;56080;47.594;19.116;2023-05-21T04:42:01;100371;;;18.09;75.16
69027;BME280;56080;47.594;19.116;2023-05-21T04:52:01;100374;;;19.28;70.45
69027;BME280;56080;47.594;19.116;2023-05-21T05:02:02;100366;;;20.09;66.23
69027;BME280;56080;47.594;19.116;2023-05-21T05:12:04;100360;;;20.93;61.64
69027;BME280;56080;47.594;19.116;2023-05-21T05:22:06;100363;;;21.25;62.88
69027;BME280;56080;47.594;19.116;2023-05-21T05:42:10;100360;;;23.76;53.13
69027;BME280;56080;47.594;19.116;2023-05-21T05:52:11;100354;;;25.20;48.39
69027;BME280;56080;47.594;19.116;2023-05-21T06:02:14;100333;;;24.67;45.29
69027;BME280;56080;47.594;19.116;2023-05-21T06:12:16;100323;;;26.10;41.72
69027;BME280;56080;47.594;19.116;2023-05-21T06:22:18;100316;;;24.07;44.06
69027;BME280;56080;47.594;19.116;2023-05-21T06:32:22;100313;;;25.39;42.67
69027;BME280;56080;47.594;19.116;2023-05-21T06:42:23;100306;;;24.89;43.50
69027;BME280;56080;47.594;19.116;2023-05-21T06:52:26;100314;;;25.32;42.85
69027;BME280;56080;47.594;19.116;2023-05-21T07:02:31;100297;;;25.37;42.10
69027;BME280;56080;47.594;19.116;2023-05-21T07:13:16;100288;;;26.48;40.43
